createdAt,value
2023-12-07T00:00:49.977Z,100896.48
2023-12-07T00:02:58.860Z,100900.23
2023-12-07T00:04:51.874Z,100900.71
2023-12-07T00:06:44.981Z,100907.11
2023-12-07T00:08:38.148Z,100906.45
2023-12-07T00:10:31.728Z,100904.27
2023-12-07T00:12:25.463Z,100906.58
2023-12-07T00:14:18.930Z,100905.13
2023-12-07T00:16:12.018Z,100905.98
2023-12-07T00:18:05.366Z,100906.70
2023-12-07T00:19:58.606Z,100908.83
2023-12-07T00:21:51.734Z,100909.16
2023-12-07T00:23:44.787Z,100909.23
2023-12-07T00:25:38.483Z,100910.91
2023-12-07T00:27:35.641Z,100914.17
2023-12-07T00:29:34.238Z,100912.73
2023-12-07T00:31:28.034Z,100913.25
2023-12-07T00:33:31.331Z,100913.22
2023-12-07T00:35:25.420Z,100912.77
2023-12-07T00:37:22.117Z,100915.86
2023-12-07T00:39:16.253Z,100912.70
2023-12-07T00:41:12.030Z,100918.68
2023-12-07T00:43:07.078Z,100918.52
2023-12-07T00:45:04.127Z,100924.54
2023-12-07T00:46:58.136Z,100926.68
2023-12-07T00:48:53.524Z,100924.26
2023-12-07T00:50:50.990Z,100923.63
2023-12-07T00:52:47.058Z,100926.21
2023-12-07T00:54:43.861Z,100921.62
2023-12-07T00:56:39.009Z,100921.27
2023-12-07T00:58:32.924Z,100923.83
2023-12-07T01:00:26.960Z,100923.96
2023-12-07T01:02:26.548Z,100922.94
2023-12-07T01:04:21.645Z,100924.23
2023-12-07T01:06:20.932Z,100926.85
2023-12-07T01:08:33.126Z,100928.73
2023-12-07T01:10:39.757Z,100934.54
2023-12-07T01:12:33.919Z,100934.96
2023-12-07T01:14:28.420Z,100931.39
2023-12-07T01:16:23.454Z,100935.16
2023-12-07T01:18:21.690Z,100933.34
2023-12-07T01:20:16.792Z,100932.55
2023-12-07T01:22:12.730Z,100936.73
2023-12-07T01:24:15.545Z,100932.17
2023-12-07T01:26:12.872Z,100929.93
2023-12-07T01:28:11.937Z,100931.09
2023-12-07T01:30:07.256Z,100932.95
2023-12-07T01:32:02.916Z,100941.55
2023-12-07T01:33:59.014Z,100940.14
2023-12-07T01:35:53.292Z,100944.98
2023-12-07T01:37:50.297Z,100945.27
2023-12-07T01:39:49.365Z,100948.25
2023-12-07T01:41:44.780Z,100949.14
2023-12-07T01:43:38.781Z,100951.64
2023-12-07T01:45:32.836Z,100951.25
2023-12-07T01:47:28.171Z,100950.67
2023-12-07T01:49:22.855Z,100951.30
2023-12-07T01:51:18.267Z,100948.70
2023-12-07T01:53:16.990Z,100950.21
2023-12-07T01:55:11.998Z,100952.20
2023-12-07T01:57:05.819Z,100950.61
2023-12-07T01:58:59.173Z,100952.46
2023-12-07T02:00:52.360Z,100951.14
2023-12-07T02:02:47.113Z,100949.27
2023-12-07T02:04:40.425Z,100946.02
2023-12-07T02:06:34.245Z,100944.80
2023-12-07T02:08:27.334Z,100945.27
2023-12-07T02:10:20.544Z,100942.90
2023-12-07T02:12:13.702Z,100944.55
2023-12-07T02:14:06.961Z,100943.73
2023-12-07T02:16:04.938Z,100946.12
2023-12-07T02:18:12.045Z,100945.73
2023-12-07T02:20:41.319Z,100948.19
2023-12-07T02:22:54.686Z,100951.90
2023-12-07T02:25:06.040Z,100955.20
2023-12-07T02:27:00.501Z,100958.44
2023-12-07T02:28:54.789Z,100960.08
2023-12-07T02:30:51.375Z,100959.40
2023-12-07T02:32:47.493Z,100955.75
2023-12-07T02:34:41.494Z,100958.64
2023-12-07T02:36:37.884Z,100958.86
2023-12-07T02:38:31.965Z,100956.24
2023-12-07T02:40:34.358Z,100953.89
2023-12-07T02:42:29.551Z,100952.96
2023-12-07T02:44:23.773Z,100953.76
2023-12-07T02:46:18.087Z,100956.40
2023-12-07T02:48:11.964Z,100955.86
2023-12-07T02:50:09.464Z,100955.74
2023-12-07T02:52:02.958Z,100954.42
2023-12-07T02:53:56.077Z,100959.39
2023-12-07T02:55:49.229Z,100956.05
2023-12-07T02:57:42.706Z,100954.44
2023-12-07T02:59:35.844Z,100960.14
2023-12-07T03:01:29.169Z,100962.05
2023-12-07T03:03:22.370Z,100959.80
2023-12-07T03:05:15.698Z,100960.79
2023-12-07T03:07:08.990Z,100958.55
2023-12-07T03:09:02.126Z,100960.75
2023-12-07T03:10:55.267Z,100961.69
2023-12-07T03:12:48.419Z,100962.97
2023-12-07T03:14:41.484Z,100964.18
2023-12-07T03:16:34.932Z,100969.52
2023-12-07T03:18:28.104Z,100969.18
2023-12-07T03:20:21.339Z,100971.30
2023-12-07T03:22:15.160Z,100979.32
2023-12-07T03:24:12.046Z,100977.58
2023-12-07T03:26:05.207Z,100982.02
2023-12-07T03:27:58.386Z,100984.16
2023-12-07T03:29:52.683Z,100985.67
2023-12-07T03:31:45.895Z,100987.60
2023-12-07T03:33:39.782Z,100988.83
2023-12-07T03:35:32.828Z,100993.09
2023-12-07T03:37:26.023Z,100994.89
2023-12-07T03:39:26.875Z,100998.00
2023-12-07T03:41:20.077Z,101002.65
2023-12-07T03:43:13.236Z,101003.21
2023-12-07T03:45:08.886Z,101002.67
2023-12-07T03:47:02.685Z,101003.42
2023-12-07T03:48:55.972Z,101003.21
2023-12-07T03:50:49.299Z,101004.26
2023-12-07T03:52:42.899Z,101003.95
2023-12-07T03:54:36.420Z,101005.48
2023-12-07T03:56:31.425Z,101003.81
2023-12-07T03:58:24.561Z,101008.89
2023-12-07T04:00:18.140Z,101014.05
2023-12-07T04:02:11.225Z,101008.79
2023-12-07T04:04:06.464Z,101015.00
2023-12-07T04:06:00.234Z,101014.30
2023-12-07T04:07:54.393Z,101011.80
2023-12-07T04:09:49.066Z,101010.88
2023-12-07T04:11:43.098Z,101011.80
2023-12-07T04:13:38.984Z,101012.65
2023-12-07T04:15:33.481Z,101015.86
2023-12-07T04:17:27.619Z,101017.23
2023-12-07T04:19:23.355Z,101020.03
2023-12-07T04:21:17.325Z,101021.80
2023-12-07T04:23:11.480Z,101020.93
2023-12-07T04:25:06.425Z,101014.61
2023-12-07T04:27:00.361Z,101013.80
2023-12-07T04:28:54.452Z,101015.96
2023-12-07T04:30:50.517Z,101017.86
2023-12-07T04:32:47.139Z,101019.77
2023-12-07T04:34:41.054Z,101019.20
2023-12-07T04:36:34.769Z,101017.29
2023-12-07T04:38:28.822Z,101018.27
2023-12-07T04:40:22.760Z,101021.52
2023-12-07T04:42:16.947Z,101021.36
2023-12-07T04:44:10.924Z,101022.88
2023-12-07T04:46:05.381Z,101018.96
2023-12-07T04:48:00.989Z,101015.17
2023-12-07T04:49:54.932Z,101013.67
2023-12-07T04:51:48.928Z,101013.95
2023-12-07T04:53:42.728Z,101017.16
2023-12-07T04:55:37.484Z,101021.58
2023-12-07T04:57:31.600Z,101028.31
2023-12-07T04:59:30.443Z,101028.08
2023-12-07T05:01:24.540Z,101028.10
2023-12-07T05:03:18.688Z,101025.10
2023-12-07T05:05:13.565Z,101023.82
2023-12-07T05:07:10.301Z,101022.09
2023-12-07T05:09:21.086Z,101024.09
2023-12-07T05:11:15.152Z,101026.27
2023-12-07T05:13:08.331Z,101025.73
2023-12-07T05:15:11.624Z,101029.30
2023-12-07T05:17:09.670Z,101033.67
2023-12-07T05:19:08.277Z,101036.84
2023-12-07T05:21:01.926Z,101038.99
2023-12-07T05:22:56.413Z,101041.43
2023-12-07T05:24:53.193Z,101042.77
2023-12-07T05:26:47.897Z,101047.05
2023-12-07T05:28:42.206Z,101050.10
2023-12-07T05:30:38.191Z,101052.23
2023-12-07T05:32:32.355Z,101056.45
2023-12-07T05:34:28.694Z,101060.92
2023-12-07T05:36:25.161Z,101060.89
2023-12-07T05:38:20.539Z,101058.98
2023-12-07T05:40:18.228Z,101059.41
2023-12-07T05:42:12.539Z,101062.23
2023-12-07T05:44:38.033Z,101062.96
2023-12-07T05:46:34.339Z,101069.48
2023-12-07T05:48:28.995Z,101073.65
2023-12-07T05:50:27.248Z,101074.92
2023-12-07T05:52:26.112Z,101075.87
2023-12-07T05:54:22.123Z,101079.19
2023-12-07T05:56:24.695Z,101082.27
2023-12-07T05:58:28.926Z,101085.87
2023-12-07T06:00:38.014Z,101085.64
2023-12-07T06:02:32.336Z,101085.23
2023-12-07T06:04:29.647Z,101084.69
2023-12-07T06:06:23.746Z,101081.38
2023-12-07T06:08:17.427Z,101081.85
2023-12-07T06:10:12.687Z,101082.48
2023-12-07T06:12:07.745Z,101080.48
2023-12-07T06:14:02.427Z,101081.25
2023-12-07T06:15:59.797Z,101086.66
2023-12-07T06:17:58.186Z,101088.63
2023-12-07T06:19:52.130Z,101088.27
2023-12-07T06:21:51.456Z,101091.19
2023-12-07T06:23:47.931Z,101092.73
2023-12-07T06:25:45.322Z,101092.73
2023-12-07T06:27:42.217Z,101091.25
2023-12-07T06:29:37.783Z,101089.40
2023-12-07T06:31:33.791Z,101094.76
2023-12-07T06:33:30.072Z,101094.60
2023-12-07T06:35:25.217Z,101093.73
2023-12-07T06:37:19.413Z,101097.40
2023-12-07T06:39:13.679Z,101096.55
2023-12-07T06:41:31.625Z,101102.05
2023-12-07T06:43:27.176Z,101099.37
2023-12-07T06:45:21.646Z,101100.20
2023-12-07T06:47:15.937Z,101100.57
2023-12-07T06:49:11.954Z,101105.23
2023-12-07T06:51:06.643Z,101108.56
2023-12-07T06:53:03.618Z,101107.22
2023-12-07T06:55:00.762Z,101109.88
2023-12-07T06:56:59.637Z,101111.24
2023-12-07T06:58:54.353Z,101117.91
2023-12-07T07:00:48.985Z,101119.80
2023-12-07T07:02:48.682Z,101119.84
2023-12-07T07:04:47.904Z,101123.68
2023-12-07T07:06:43.027Z,101121.50
2023-12-07T07:08:37.010Z,101124.28
2023-12-07T07:10:35.191Z,101125.52
2023-12-07T07:12:31.564Z,101124.50
2023-12-07T07:14:25.956Z,101125.90
2023-12-07T07:16:20.851Z,101136.38
2023-12-07T07:18:16.004Z,101137.52
2023-12-07T07:20:14.573Z,101136.14
2023-12-07T07:22:10.691Z,101135.05
2023-12-07T07:24:07.131Z,101136.09
2023-12-07T07:26:03.028Z,101135.67
2023-12-07T07:27:57.592Z,101137.46
2023-12-07T07:29:51.652Z,101137.30
2023-12-07T07:31:55.373Z,101138.39
2023-12-07T07:34:00.218Z,101134.33
2023-12-07T07:35:58.825Z,101135.04
2023-12-07T07:37:55.885Z,101135.85
2023-12-07T07:39:50.418Z,101136.30
2023-12-07T07:41:44.342Z,101140.64
2023-12-07T07:43:37.524Z,101140.11
2023-12-07T07:45:30.748Z,101139.51
2023-12-07T07:47:23.964Z,101139.56
2023-12-07T07:49:17.295Z,101141.58
2023-12-07T07:51:10.413Z,101139.09
2023-12-07T07:53:05.117Z,101139.13
2023-12-07T07:54:58.152Z,101142.22
2023-12-07T07:56:51.212Z,101144.85
2023-12-07T07:58:44.392Z,101143.36
2023-12-07T08:00:37.759Z,101143.34
2023-12-07T08:02:30.971Z,101147.09
2023-12-07T08:04:24.124Z,101146.38
2023-12-07T08:06:17.343Z,101143.34
2023-12-07T08:08:10.837Z,101144.48
2023-12-07T08:10:05.176Z,101146.25
2023-12-07T08:11:58.377Z,101146.17
2023-12-07T08:13:51.942Z,101152.30
2023-12-07T08:15:45.082Z,101150.52
2023-12-07T08:17:39.961Z,101143.80
2023-12-07T08:19:33.170Z,101146.39
2023-12-07T08:21:29.888Z,101144.91
2023-12-07T08:23:24.365Z,101146.33
2023-12-07T08:25:18.787Z,101146.42
2023-12-07T08:27:11.888Z,101148.93
2023-12-07T08:29:10.398Z,101149.86
2023-12-07T08:31:03.816Z,101154.05
2023-12-07T08:32:57.021Z,101159.34
2023-12-07T08:34:50.299Z,101158.89
2023-12-07T08:36:43.904Z,101154.73
2023-12-07T08:38:36.893Z,101153.90
2023-12-07T08:40:30.067Z,101154.17
2023-12-07T08:42:23.159Z,101155.86
2023-12-07T08:44:16.412Z,101158.84
2023-12-07T08:46:09.534Z,101161.71
2023-12-07T08:48:02.920Z,101163.52
2023-12-07T08:49:55.981Z,101166.14
2023-12-07T08:51:57.680Z,101169.86
2023-12-07T08:54:02.125Z,101170.56
2023-12-07T08:55:55.703Z,101169.67
2023-12-07T08:57:48.873Z,101168.33
2023-12-07T08:59:42.017Z,101170.41
2023-12-07T09:01:35.785Z,101167.09
2023-12-07T09:03:33.588Z,101162.84
2023-12-07T09:05:31.497Z,101168.50
2023-12-07T09:07:24.956Z,101166.31
2023-12-07T09:09:18.222Z,101168.46
2023-12-07T09:11:11.373Z,101169.85
2023-12-07T09:13:04.588Z,101167.60
2023-12-07T09:14:57.781Z,101166.36
2023-12-07T09:16:50.878Z,101165.75
2023-12-07T09:18:46.580Z,101166.56
2023-12-07T09:20:47.446Z,101167.36
2023-12-07T09:22:44.199Z,101169.14
2023-12-07T09:24:37.427Z,101175.70
2023-12-07T09:26:30.472Z,101175.13
2023-12-07T09:28:23.593Z,101179.33
2023-12-07T09:30:18.058Z,101172.44
2023-12-07T09:32:11.219Z,101174.14
2023-12-07T09:34:12.264Z,101173.65
2023-12-07T09:36:09.493Z,101176.09
2023-12-07T09:38:03.179Z,101173.13
2023-12-07T09:39:56.223Z,101172.16
2023-12-07T09:41:49.386Z,101172.98
2023-12-07T09:43:42.545Z,101172.73
2023-12-07T09:45:35.933Z,101171.64
2023-12-07T09:47:35.005Z,101171.29
2023-12-07T09:49:31.776Z,101170.95
2023-12-07T09:51:26.992Z,101171.20
2023-12-07T09:53:20.893Z,101172.10
2023-12-07T09:55:14.042Z,101169.13
2023-12-07T09:57:07.213Z,101167.58
2023-12-07T09:59:00.977Z,101170.09
2023-12-07T10:00:54.124Z,101168.65
2023-12-07T10:02:47.849Z,101168.88
2023-12-07T10:04:41.600Z,101167.83
2023-12-07T10:06:46.474Z,101164.77
2023-12-07T10:08:40.246Z,101160.97
2023-12-07T10:10:33.306Z,101160.75
2023-12-07T10:12:26.542Z,101163.91
2023-12-07T10:14:19.596Z,101161.41
2023-12-07T10:16:16.246Z,101163.44
2023-12-07T10:18:10.579Z,101163.05
2023-12-07T10:20:10.255Z,101166.73
2023-12-07T10:22:16.557Z,101165.95
2023-12-07T10:24:11.073Z,101165.24
2023-12-07T10:26:05.178Z,101161.11
2023-12-07T10:27:58.505Z,101161.41
2023-12-07T10:29:51.760Z,101161.67
2023-12-07T10:31:45.614Z,101162.48
2023-12-07T10:33:39.328Z,101162.66
2023-12-07T10:35:33.327Z,101159.70
2023-12-07T10:37:27.705Z,101159.45
2023-12-07T10:39:25.536Z,101160.37
2023-12-07T10:41:26.849Z,101158.23
2023-12-07T10:43:21.998Z,101156.09
2023-12-07T10:45:16.963Z,101157.73
2023-12-07T10:47:13.792Z,101155.10
2023-12-07T10:49:15.705Z,101153.60
2023-12-07T10:51:31.629Z,101153.51
2023-12-07T10:53:31.347Z,101153.95
2023-12-07T10:55:33.659Z,101155.23
2023-12-07T10:57:29.404Z,101153.23
2023-12-07T10:59:30.472Z,101153.67
2023-12-07T11:01:27.271Z,101159.13
2023-12-07T11:03:24.931Z,101157.51
2023-12-07T11:05:18.548Z,101154.59
2023-12-07T11:07:18.536Z,101150.52
2023-12-07T11:09:17.424Z,101151.52
2023-12-07T11:11:26.466Z,101152.05
2023-12-07T11:13:25.336Z,101149.21
2023-12-07T11:15:19.365Z,101151.50
2023-12-07T11:17:12.556Z,101151.27
2023-12-07T11:19:11.994Z,101149.80
2023-12-07T11:21:06.236Z,101146.39
2023-12-07T11:23:00.819Z,101146.24
2023-12-07T11:24:56.734Z,101145.65
2023-12-07T11:26:49.783Z,101143.75
2023-12-07T11:28:43.226Z,101140.29
2023-12-07T11:30:37.465Z,101141.14
2023-12-07T11:32:31.240Z,101141.98
2023-12-07T11:34:41.585Z,101142.59
2023-12-07T11:36:35.010Z,101139.64
2023-12-07T11:38:28.159Z,101140.67
2023-12-07T11:40:21.253Z,101137.20
2023-12-07T11:42:18.720Z,101140.31
2023-12-07T11:44:13.170Z,101145.53
2023-12-07T11:46:06.579Z,101149.66
2023-12-07T11:48:16.442Z,101148.82
2023-12-07T11:50:11.885Z,101142.45
2023-12-07T11:52:16.856Z,101140.58
2023-12-07T11:54:13.018Z,101136.46
2023-12-07T11:56:08.593Z,101135.54
2023-12-07T11:58:02.203Z,101130.83
2023-12-07T11:59:55.338Z,101129.30
2023-12-07T12:01:49.692Z,101132.61
2023-12-07T12:03:44.313Z,101127.95
2023-12-07T12:05:40.528Z,101123.15
2023-12-07T12:07:34.715Z,101125.58
2023-12-07T12:09:32.674Z,101126.02
2023-12-07T12:11:26.957Z,101124.92
2023-12-07T12:13:20.564Z,101124.70
2023-12-07T12:15:13.796Z,101126.35
2023-12-07T12:17:07.045Z,101125.77
2023-12-07T12:19:00.339Z,101127.80
2023-12-07T12:20:54.483Z,101127.64
2023-12-07T12:22:47.699Z,101127.39
2023-12-07T12:24:41.941Z,101130.55
2023-12-07T12:26:36.277Z,101133.37
2023-12-07T12:28:30.207Z,101138.11
2023-12-07T12:30:24.324Z,101138.35
2023-12-07T12:32:17.478Z,101131.88
2023-12-07T12:34:14.643Z,101131.67
2023-12-07T12:36:09.020Z,101130.03
2023-12-07T12:38:02.468Z,101130.97
2023-12-07T12:39:55.617Z,101127.23
2023-12-07T12:41:48.770Z,101128.13
2023-12-07T12:43:42.325Z,101131.13
2023-12-07T12:45:35.811Z,101137.13
2023-12-07T12:47:29.103Z,101135.98
2023-12-07T12:49:22.249Z,101139.55
2023-12-07T12:51:15.736Z,101142.50
2023-12-07T12:53:11.421Z,101142.61
2023-12-07T12:55:09.200Z,101143.91
2023-12-07T12:57:03.184Z,101143.56
2023-12-07T12:59:03.606Z,101146.05
2023-12-07T13:00:58.975Z,101147.88
2023-12-07T13:02:52.222Z,101149.73
2023-12-07T13:06:42.164Z,101146.78
2023-12-07T13:08:35.440Z,101144.94
2023-12-07T13:10:28.731Z,101145.95
2023-12-07T13:12:23.790Z,101145.02
2023-12-07T13:14:18.888Z,101151.91
2023-12-07T13:16:16.157Z,101153.70
2023-12-07T13:18:09.494Z,101156.30
2023-12-07T13:20:02.815Z,101153.28
2023-12-07T13:21:56.119Z,101155.23
2023-12-07T13:23:49.273Z,101154.09
2023-12-07T13:25:42.650Z,101152.59
2023-12-07T13:27:35.777Z,101156.49
2023-12-07T13:29:35.701Z,101156.39
2023-12-07T13:31:30.058Z,101151.08
2023-12-07T13:33:28.081Z,101150.52
2023-12-07T13:35:24.866Z,101148.91
2023-12-07T13:37:18.035Z,101151.91
2023-12-07T13:39:20.268Z,101151.96
2023-12-07T13:41:21.540Z,101155.41
2023-12-07T13:43:14.897Z,101156.59
2023-12-07T13:45:11.570Z,101159.06
2023-12-07T13:47:05.293Z,101163.83
2023-12-07T13:48:58.668Z,101163.90
2023-12-07T13:50:51.705Z,101161.43
2023-12-07T13:52:44.971Z,101162.36
2023-12-07T13:56:34.134Z,101163.58
2023-12-07T13:58:27.720Z,101161.55
2023-12-07T14:00:21.359Z,101161.59
2023-12-07T14:02:14.524Z,101164.20
2023-12-07T14:04:13.106Z,101165.15
2023-12-07T14:06:15.109Z,101165.69
2023-12-07T14:08:14.964Z,101167.56
2023-12-07T14:10:09.288Z,101171.08
2023-12-07T14:12:02.434Z,101170.54
2023-12-07T14:13:56.054Z,101165.60
2023-12-07T14:15:49.824Z,101165.11
2023-12-07T14:17:50.902Z,101164.08
2023-12-07T14:19:48.792Z,101164.47
2023-12-07T14:21:52.347Z,101162.51
2023-12-07T14:23:54.468Z,101168.30
2023-12-07T14:25:50.008Z,101175.13
2023-12-07T14:27:43.061Z,101177.00
2023-12-07T14:29:36.239Z,101174.93
2023-12-07T14:31:29.365Z,101179.45
2023-12-07T14:33:22.685Z,101178.30
2023-12-07T14:35:16.168Z,101181.23
2023-12-07T14:37:09.682Z,101181.20
2023-12-07T14:39:02.903Z,101181.98
2023-12-07T14:40:56.353Z,101181.62
2023-12-07T14:42:49.508Z,101182.91
2023-12-07T14:44:42.714Z,101178.88
2023-12-07T14:46:35.961Z,101182.70
2023-12-07T14:48:29.194Z,101179.82
2023-12-07T14:50:22.458Z,101182.41
2023-12-07T14:52:15.528Z,101176.13
2023-12-07T14:54:11.053Z,101182.89
2023-12-07T14:56:06.288Z,101184.01
2023-12-07T14:57:59.645Z,101189.34
2023-12-07T14:59:54.936Z,101187.98
2023-12-07T15:01:48.224Z,101191.47
2023-12-07T15:03:41.778Z,101192.60
2023-12-07T15:05:35.016Z,101188.77
2023-12-07T15:07:29.508Z,101193.63
2023-12-07T15:09:22.554Z,101199.34
2023-12-07T15:11:16.119Z,101194.77
2023-12-07T15:13:09.170Z,101193.88
2023-12-07T15:15:02.849Z,101193.06
2023-12-07T15:16:56.301Z,101190.64
2023-12-07T15:18:49.725Z,101196.27
2023-12-07T15:20:43.333Z,101192.23
2023-12-07T15:22:36.775Z,101196.27
2023-12-07T15:24:35.143Z,101195.52
2023-12-07T15:26:31.655Z,101197.33
2023-12-07T15:28:25.044Z,101195.97
2023-12-07T15:30:18.303Z,101195.63
2023-12-07T15:32:11.781Z,101195.59
2023-12-07T15:34:05.143Z,101194.79
2023-12-07T15:35:59.512Z,101192.86
2023-12-07T15:37:52.594Z,101191.98
2023-12-07T15:39:45.891Z,101189.23
2023-12-07T15:41:39.485Z,101186.56
2023-12-07T15:43:32.723Z,101188.43
2023-12-07T15:45:25.796Z,101189.09
2023-12-07T15:47:19.441Z,101188.86
2023-12-07T15:49:12.701Z,101192.17
2023-12-07T15:51:06.682Z,101191.35
2023-12-07T15:52:59.822Z,101191.72
2023-12-07T15:54:52.987Z,101191.61
2023-12-07T15:56:46.179Z,101192.48
2023-12-07T15:58:39.384Z,101191.40
2023-12-07T16:00:32.960Z,101195.15
2023-12-07T16:02:27.262Z,101194.10
2023-12-07T16:04:29.307Z,101193.94
2023-12-07T16:06:26.697Z,101194.01
2023-12-07T16:08:19.890Z,101194.10
2023-12-07T16:10:13.076Z,101194.23
2023-12-07T16:12:07.268Z,101190.95
2023-12-07T16:14:01.497Z,101192.44
2023-12-07T16:15:56.122Z,101190.98
2023-12-07T16:17:50.456Z,101190.63
2023-12-07T16:19:44.117Z,101192.94
2023-12-07T16:21:38.557Z,101194.15
2023-12-07T16:23:31.997Z,101191.04
2023-12-07T16:25:25.448Z,101191.69
2023-12-07T16:27:21.562Z,101191.64
2023-12-07T16:29:16.758Z,101195.95
2023-12-07T16:31:09.881Z,101201.15
2023-12-07T16:33:03.491Z,101207.46
2023-12-07T16:34:56.730Z,101206.73
2023-12-07T16:36:49.889Z,101205.02
2023-12-07T16:38:43.576Z,101203.87
2023-12-07T16:40:36.698Z,101202.00
2023-12-07T16:42:30.015Z,101202.11
2023-12-07T16:44:23.266Z,101203.05
2023-12-07T16:46:16.468Z,101202.92
2023-12-07T16:48:11.107Z,101200.30
2023-12-07T16:50:04.865Z,101204.67
2023-12-07T16:51:58.610Z,101202.70
2023-12-07T16:53:52.040Z,101206.88
2023-12-07T16:55:46.950Z,101205.33
2023-12-07T16:57:40.095Z,101203.44
2023-12-07T16:59:33.170Z,101202.13
2023-12-07T17:01:27.328Z,101202.70
2023-12-07T17:03:23.939Z,101204.80
2023-12-07T17:05:17.365Z,101210.25
2023-12-07T17:07:11.589Z,101208.45
2023-12-07T17:09:11.591Z,101206.38
2023-12-07T17:11:09.583Z,101204.58
2023-12-07T17:13:02.838Z,101206.90
2023-12-07T17:14:56.027Z,101207.36
2023-12-07T17:16:50.178Z,101206.06
2023-12-07T17:18:43.384Z,101202.52
2023-12-07T17:20:36.924Z,101199.60
2023-12-07T17:22:30.331Z,101197.74
2023-12-07T17:24:23.445Z,101199.39
2023-12-07T17:26:16.643Z,101196.89
2023-12-07T17:28:09.636Z,101197.80
2023-12-07T17:30:03.076Z,101202.02
2023-12-07T17:31:58.503Z,101207.84
2023-12-07T17:33:51.734Z,101209.20
2023-12-07T17:35:45.016Z,101211.30
2023-12-07T17:37:38.528Z,101209.06
2023-12-07T17:39:31.784Z,101208.16
2023-12-07T17:41:25.051Z,101209.42
2023-12-07T17:43:18.190Z,101209.84
2023-12-07T17:45:11.353Z,101215.39
2023-12-07T17:47:04.831Z,101213.93
2023-12-07T17:48:58.189Z,101214.23
2023-12-07T17:50:52.904Z,101216.29
2023-12-07T17:52:47.643Z,101215.88
2023-12-07T17:54:41.320Z,101210.69
2023-12-07T17:56:34.466Z,101211.02
2023-12-07T17:58:27.673Z,101211.58
2023-12-07T18:00:20.776Z,101208.75
2023-12-07T18:02:13.819Z,101204.78
2023-12-07T18:04:07.100Z,101198.46
2023-12-07T18:06:00.499Z,101197.81
2023-12-07T18:07:53.686Z,101197.95
2023-12-07T18:09:46.942Z,101198.64
2023-12-07T18:11:40.085Z,101198.13
2023-12-07T18:13:33.447Z,101196.30
2023-12-07T18:15:26.615Z,101199.74
2023-12-07T18:17:22.378Z,101200.48
2023-12-07T18:19:18.648Z,101202.16
2023-12-07T18:21:13.052Z,101201.40
2023-12-07T18:23:06.184Z,101202.01
2023-12-07T18:24:59.485Z,101204.59
2023-12-07T18:26:52.718Z,101204.17
2023-12-07T18:28:46.119Z,101205.20
2023-12-07T18:30:40.654Z,101204.10
2023-12-07T18:32:35.330Z,101205.62
2023-12-07T18:34:28.612Z,101201.60
2023-12-07T18:36:21.944Z,101199.80
2023-12-07T18:38:15.088Z,101199.18
2023-12-07T18:40:09.207Z,101198.53
2023-12-07T18:42:02.360Z,101199.26
2023-12-07T18:43:55.482Z,101198.51
2023-12-07T18:45:49.242Z,101199.43
2023-12-07T18:47:43.075Z,101194.82
2023-12-07T18:49:36.475Z,101194.73
2023-12-07T18:51:29.568Z,101193.69
2023-12-07T18:53:22.688Z,101192.70
2023-12-07T18:55:15.693Z,101197.37
2023-12-07T18:57:08.905Z,101199.73
2023-12-07T18:59:02.027Z,101206.89
2023-12-07T19:00:55.367Z,101218.04
2023-12-07T19:02:48.560Z,101222.84
2023-12-07T19:04:45.091Z,101227.47
2023-12-07T19:06:38.358Z,101230.73
2023-12-07T19:08:31.576Z,101229.96
2023-12-07T19:10:24.838Z,101231.38
2023-12-07T19:12:17.989Z,101226.39
2023-12-07T19:14:11.050Z,101229.16
2023-12-07T19:16:04.607Z,101230.77
2023-12-07T19:18:00.804Z,101230.08
2023-12-07T19:19:54.090Z,101234.92
2023-12-07T19:21:49.114Z,101239.65
2023-12-07T19:23:42.253Z,101242.64
2023-12-07T19:25:36.004Z,101243.54
2023-12-07T19:27:29.269Z,101242.38
2023-12-07T19:29:22.406Z,101243.45
2023-12-07T19:31:15.463Z,101248.29
2023-12-07T19:33:09.508Z,101242.45
2023-12-07T19:35:03.191Z,101234.77
2023-12-07T19:37:00.206Z,101233.52
2023-12-07T19:38:53.511Z,101230.48
2023-12-07T19:40:46.563Z,101235.16
2023-12-07T19:42:41.631Z,101237.11
2023-12-07T19:44:35.943Z,101238.38
2023-12-07T19:46:29.287Z,101236.16
2023-12-07T19:48:23.638Z,101236.14
2023-12-07T19:50:16.915Z,101234.89
2023-12-07T19:52:12.351Z,101234.23
2023-12-07T19:54:05.548Z,101233.00
2023-12-07T19:55:58.737Z,101230.30
2023-12-07T19:57:52.760Z,101232.36
2023-12-07T19:59:45.881Z,101233.48
2023-12-07T20:01:39.946Z,101234.11
2023-12-07T20:03:49.197Z,101228.45
2023-12-07T20:05:42.437Z,101226.13
2023-12-07T20:07:38.036Z,101225.34
2023-12-07T20:09:31.321Z,101227.22
2023-12-07T20:11:24.672Z,101223.80
2023-12-07T20:13:17.914Z,101224.90
2023-12-07T20:15:12.194Z,101220.48
2023-12-07T20:17:05.434Z,101213.86
2023-12-07T20:18:58.801Z,101210.81
2023-12-07T20:20:52.538Z,101206.61
2023-12-07T20:22:45.613Z,101207.15
2023-12-07T20:24:40.342Z,101208.36
2023-12-07T20:26:34.554Z,101211.77
2023-12-07T20:28:28.254Z,101207.59
2023-12-07T20:30:25.469Z,101207.19
2023-12-07T20:32:18.590Z,101202.52
2023-12-07T20:34:12.125Z,101199.50
2023-12-07T20:36:06.533Z,101198.13
2023-12-07T20:37:59.514Z,101205.41
2023-12-07T20:39:53.664Z,101211.51
2023-12-07T20:41:47.412Z,101210.29
2023-12-07T20:43:41.154Z,101205.35
2023-12-07T20:45:34.608Z,101208.44
2023-12-07T20:47:28.574Z,101202.03
2023-12-07T20:49:22.696Z,101201.29
2023-12-07T20:51:16.366Z,101197.89
2023-12-07T20:53:09.780Z,101187.52
2023-12-07T20:55:02.940Z,101183.00
2023-12-07T20:56:56.096Z,101179.47
2023-12-07T20:58:49.232Z,101175.41
2023-12-07T21:00:42.308Z,101178.14
2023-12-07T21:02:35.586Z,101171.95
2023-12-07T21:04:28.843Z,101176.47
2023-12-07T21:06:26.316Z,101175.66
2023-12-07T21:08:21.143Z,101176.74
2023-12-07T21:10:14.420Z,101180.01
2023-12-07T21:12:08.204Z,101173.40
2023-12-07T21:14:02.302Z,101168.95
2023-12-07T21:15:55.906Z,101171.29
2023-12-07T21:17:49.173Z,101171.88
2023-12-07T21:19:42.379Z,101172.64
2023-12-07T21:21:35.572Z,101169.51
2023-12-07T21:23:28.789Z,101162.16
2023-12-07T21:25:22.027Z,101157.71
2023-12-07T21:27:15.237Z,101158.95
2023-12-07T21:29:17.298Z,101156.75
2023-12-07T21:31:10.695Z,101147.33
2023-12-07T21:33:04.163Z,101139.73
2023-12-07T21:34:57.768Z,101134.47
2023-12-07T21:36:51.858Z,101130.36
2023-12-07T21:38:46.757Z,101135.73
2023-12-07T21:40:41.200Z,101133.36
2023-12-07T21:42:35.567Z,101142.81
2023-12-07T21:44:29.379Z,101143.85
2023-12-07T21:46:22.549Z,101143.20
2023-12-07T21:48:16.080Z,101136.73
2023-12-07T21:50:09.425Z,101135.29
2023-12-07T21:52:03.127Z,101130.67
2023-12-07T21:53:56.304Z,101125.39
2023-12-07T21:55:49.333Z,101128.13
2023-12-07T21:57:42.487Z,101127.85